createdAt,value
2023-05-12T00:03:53.738Z,98.94
2023-05-12T00:08:57.973Z,98.85
2023-05-12T00:14:03.340Z,100.00
2023-05-12T00:19:07.503Z,99.84
2023-05-12T00:24:11.627Z,100.00
2023-05-12T00:29:16.888Z,100.00
2023-05-12T00:34:20.906Z,100.00
2023-05-12T00:39:24.855Z,100.00
2023-05-12T00:44:30.267Z,100.00
2023-05-12T00:49:34.300Z,99.77
2023-05-12T00:54:39.931Z,100.00
2023-05-12T00:59:45.219Z,100.00
2023-05-12T01:04:49.956Z,100.00
2023-05-12T01:09:58.233Z,99.83
2023-05-12T01:15:05.672Z,97.25
2023-05-12T01:20:13.208Z,94.16
2023-05-12T01:25:18.867Z,95.25
2023-05-12T01:30:25.871Z,93.47
2023-05-12T01:35:30.082Z,92.23
2023-05-12T01:40:38.640Z,94.99
2023-05-12T01:45:44.146Z,91.72
2023-05-12T01:50:48.134Z,95.55
2023-05-12T01:55:56.874Z,97.23
2023-05-12T02:01:03.786Z,96.65
2023-05-12T02:06:08.073Z,97.47
2023-05-12T02:11:12.759Z,100.00
2023-05-12T02:16:18.214Z,100.00
2023-05-12T02:21:22.796Z,100.00
2023-05-12T02:26:28.701Z,100.00
2023-05-12T02:31:34.060Z,100.00
2023-05-12T02:36:38.453Z,100.00
2023-05-12T02:41:42.951Z,100.00
2023-05-12T02:46:49.230Z,100.00
2023-05-12T02:51:54.964Z,100.00
2023-05-12T02:56:59.898Z,100.00
2023-05-12T03:02:06.142Z,100.00
2023-05-12T03:07:10.735Z,100.00
2023-05-12T03:12:14.727Z,100.00
2023-05-12T03:17:20.272Z,100.00
2023-05-12T03:22:25.809Z,100.00
2023-05-12T03:27:30.126Z,100.00
2023-05-12T03:32:35.679Z,100.00
2023-05-12T03:37:40.003Z,100.00
2023-05-12T03:42:45.572Z,100.00
2023-05-12T03:47:51.107Z,100.00
2023-05-12T03:52:56.204Z,100.00
2023-05-12T03:58:00.207Z,100.00
2023-05-12T04:03:05.739Z,100.00
2023-05-12T04:08:10.631Z,100.00
2023-05-12T04:13:14.665Z,100.00
2023-05-12T04:18:20.082Z,100.00
2023-05-12T04:23:24.388Z,100.00
2023-05-12T04:28:30.632Z,100.00
2023-05-12T04:33:36.121Z,100.00
2023-05-12T04:38:41.769Z,100.00
2023-05-12T04:48:54.761Z,100.00
2023-05-12T04:53:58.694Z,100.00
2023-05-12T04:59:03.258Z,100.00
2023-05-12T05:04:08.852Z,100.00
2023-05-12T05:09:13.131Z,100.00
2023-05-12T05:14:17.071Z,98.54
2023-05-12T05:19:32.448Z,94.20
2023-05-12T05:24:48.870Z,95.06
2023-05-12T05:29:53.244Z,98.01
2023-05-12T05:34:58.726Z,97.06
2023-05-12T05:40:03.600Z,97.11
2023-05-12T05:45:09.690Z,100.00
2023-05-12T05:50:15.174Z,99.38
2023-05-12T05:55:19.640Z,97.09
2023-05-12T06:00:24.119Z,95.53
2023-05-12T06:05:30.869Z,92.45
2023-05-12T06:10:35.110Z,87.69
2023-05-12T06:15:39.404Z,77.64
2023-05-12T06:20:44.773Z,80.15
2023-05-12T06:25:50.308Z,76.61
2023-05-12T06:30:54.397Z,73.19
2023-05-12T06:35:59.772Z,85.57
2023-05-12T06:41:03.742Z,85.67
2023-05-12T06:46:08.670Z,85.56
2023-05-12T06:51:14.323Z,81.36
2023-05-12T06:56:18.402Z,79.19
2023-05-12T07:01:22.535Z,78.29
2023-05-12T07:06:28.686Z,68.66
2023-05-12T07:11:32.579Z,66.80
2023-05-12T07:16:36.516Z,65.57
2023-05-12T07:21:41.909Z,65.38
2023-05-12T07:26:45.850Z,66.05
2023-05-12T07:31:49.780Z,67.63
2023-05-12T07:36:55.210Z,63.96
2023-05-12T07:41:59.409Z,63.65
2023-05-12T07:47:03.406Z,61.28
2023-05-12T07:52:09.009Z,61.29
2023-05-12T07:57:12.870Z,59.75
2023-05-12T08:02:17.423Z,60.31
2023-05-12T08:07:23.076Z,58.39
2023-05-12T08:12:27.128Z,57.08
2023-05-12T08:17:31.168Z,58.17
2023-05-12T08:22:36.521Z,58.20
2023-05-12T08:27:40.589Z,55.86
2023-05-12T08:32:44.758Z,54.13
2023-05-12T08:37:50.373Z,54.85
2023-05-12T08:43:04.584Z,52.61
2023-05-12T08:48:11.469Z,50.30
2023-05-12T08:53:20.277Z,48.64
2023-05-12T08:58:30.628Z,49.88
2023-05-12T09:03:44.223Z,48.38
2023-05-12T09:08:49.593Z,43.38
2023-05-12T09:14:00.383Z,42.96
2023-05-12T09:19:06.736Z,41.53
2023-05-12T09:24:12.538Z,40.72
2023-05-12T09:29:27.746Z,37.72
2023-05-12T09:34:38.759Z,36.77
2023-05-12T09:39:45.814Z,37.25
2023-05-12T09:44:51.958Z,37.69
2023-05-12T09:49:57.660Z,37.56
2023-05-12T09:55:11.492Z,37.02
2023-05-12T10:00:34.500Z,36.48
2023-05-12T10:05:50.794Z,37.63
2023-05-12T10:10:58.045Z,36.23
2023-05-12T10:16:02.496Z,36.92
2023-05-12T10:21:08.291Z,36.52
2023-05-12T10:26:14.371Z,36.34
2023-05-12T10:31:19.151Z,36.69
2023-05-12T10:36:23.344Z,37.00
2023-05-12T10:41:32.630Z,37.50
2023-05-12T10:46:37.418Z,37.57
2023-05-12T10:51:50.984Z,37.76
2023-05-12T10:57:00.406Z,36.90
2023-05-12T11:02:06.624Z,37.01
2023-05-12T11:07:13.858Z,38.64
2023-05-12T11:12:20.728Z,37.39
2023-05-12T11:17:24.765Z,37.30
2023-05-12T11:22:28.778Z,36.43
2023-05-12T11:27:34.099Z,35.00
2023-05-12T11:32:38.289Z,36.35
2023-05-12T11:37:43.968Z,35.45
2023-05-12T11:42:51.682Z,34.40
2023-05-12T11:48:08.878Z,33.31
2023-05-12T11:53:15.146Z,34.87
2023-05-12T11:58:26.710Z,34.75
2023-05-12T12:03:30.820Z,35.24
2023-05-12T12:08:34.737Z,34.88
2023-05-12T12:13:40.142Z,33.19
2023-05-12T12:18:44.042Z,33.53
2023-05-12T12:23:51.200Z,34.24
2023-05-12T12:28:57.609Z,33.48
2023-05-12T12:34:02.389Z,31.53
2023-05-12T12:39:06.319Z,31.84
2023-05-12T12:44:11.924Z,33.28
2023-05-12T12:49:16.097Z,33.26
2023-05-12T12:54:20.265Z,33.74
2023-05-12T12:59:25.906Z,33.94
2023-05-12T13:04:30.035Z,33.03
2023-05-12T13:09:33.917Z,32.74
2023-05-12T13:14:39.475Z,32.94
2023-05-12T13:19:43.709Z,32.11
2023-05-12T13:24:47.642Z,32.02
2023-05-12T13:29:53.037Z,32.42
2023-05-12T13:34:57.243Z,33.39
2023-05-12T13:40:01.266Z,32.10
2023-05-12T13:45:09.233Z,31.66
2023-05-12T13:50:15.661Z,30.74
2023-05-12T13:55:21.712Z,31.66
2023-05-12T14:00:30.252Z,31.17
2023-05-12T14:05:34.333Z,29.75
2023-05-12T14:10:38.333Z,28.31
2023-05-12T14:15:49.375Z,29.10
2023-05-12T14:20:54.705Z,29.68
2023-05-12T14:25:58.838Z,30.08
2023-05-12T14:31:04.634Z,31.69
2023-05-12T14:36:09.673Z,32.00
2023-05-12T14:41:13.954Z,32.83
2023-05-12T14:46:19.414Z,33.25
2023-05-12T14:51:23.164Z,32.61
2023-05-12T14:56:27.282Z,32.72
2023-05-12T15:01:32.707Z,32.56
2023-05-12T15:06:38.144Z,31.03
2023-05-12T15:11:44.644Z,30.77
2023-05-12T15:16:50.229Z,31.77
2023-05-12T15:21:54.435Z,33.20
2023-05-12T15:26:58.587Z,33.38
2023-05-12T15:32:04.388Z,34.30
2023-05-12T15:37:08.410Z,33.61
2023-05-12T15:42:14.582Z,33.14
2023-05-12T15:47:22.082Z,34.71
2023-05-12T15:52:27.786Z,33.21
2023-05-12T15:57:31.772Z,35.05
2023-05-12T16:02:37.441Z,35.71
2023-05-12T16:07:41.671Z,37.70
2023-05-12T16:12:48.088Z,37.84
2023-05-12T16:17:53.438Z,37.57
2023-05-12T16:22:57.402Z,38.48
2023-05-12T16:28:01.321Z,38.64
2023-05-12T16:33:07.229Z,38.50
2023-05-12T16:38:11.266Z,38.87
2023-05-12T16:43:15.317Z,39.33
2023-05-12T16:48:20.846Z,39.22
2023-05-12T16:53:26.016Z,38.27
2023-05-12T16:58:32.312Z,38.72
2023-05-12T17:03:37.856Z,38.38
2023-05-12T17:08:41.808Z,38.95
2023-05-12T17:13:45.706Z,38.26
2023-05-12T17:23:57.928Z,39.59
2023-05-12T17:29:02.745Z,40.18
2023-05-12T17:34:10.559Z,41.21
2023-05-12T17:39:15.798Z,42.04
2023-05-12T17:44:20.133Z,42.83
2023-05-12T17:49:25.775Z,43.34
2023-05-12T17:54:29.845Z,44.69
2023-05-12T17:59:34.340Z,43.84
2023-05-12T18:04:39.963Z,44.25
2023-05-12T18:09:44.130Z,44.66
2023-05-12T18:14:48.332Z,45.67
2023-05-12T18:19:53.678Z,46.69
2023-05-12T18:24:57.599Z,48.39
2023-05-12T18:30:01.544Z,48.67
2023-05-12T18:35:08.611Z,47.60
2023-05-12T18:40:13.295Z,48.99
2023-05-12T18:45:18.727Z,49.77
2023-05-12T18:50:24.301Z,51.06
2023-05-12T18:55:28.402Z,51.59
2023-05-12T19:00:33.621Z,53.13
2023-05-12T19:05:44.375Z,53.43
2023-05-12T19:10:49.090Z,53.77
2023-05-12T19:15:53.424Z,52.62
2023-05-12T19:20:58.925Z,54.85
2023-05-12T19:26:03.004Z,55.94
2023-05-12T19:31:06.920Z,57.64
2023-05-12T19:36:12.833Z,58.70
2023-05-12T19:41:16.492Z,59.91
2023-05-12T19:46:20.760Z,62.83
2023-05-12T19:51:26.182Z,63.95
2023-05-12T19:56:30.681Z,64.83
2023-05-12T20:01:34.748Z,65.94
2023-05-12T20:06:40.418Z,66.25
2023-05-12T20:11:44.377Z,67.47
2023-05-12T20:16:48.447Z,68.16
2023-05-12T20:21:53.750Z,67.19
2023-05-12T20:26:57.860Z,70.02
2023-05-12T20:32:01.798Z,69.92
2023-05-12T20:37:07.136Z,69.86
2023-05-12T20:42:11.038Z,71.42
2023-05-12T20:47:14.992Z,71.73
2023-05-12T20:52:20.350Z,71.32
2023-05-12T20:57:24.349Z,75.13
2023-05-12T21:02:29.569Z,76.35
2023-05-12T21:07:35.288Z,79.41
2023-05-12T21:12:39.576Z,78.78
2023-05-12T21:17:43.667Z,79.13
2023-05-12T21:22:49.098Z,80.00
2023-05-12T21:27:53.190Z,88.19
2023-05-12T21:32:57.256Z,86.47
2023-05-12T21:38:02.654Z,91.76
2023-05-12T21:43:06.550Z,91.64
2023-05-12T21:48:10.474Z,91.03
2023-05-12T21:53:15.914Z,86.70
2023-05-12T21:58:19.811Z,87.17
2023-05-12T22:03:25.391Z,90.52
2023-05-12T22:08:30.705Z,92.72
2023-05-12T22:13:34.780Z,91.38
2023-05-12T22:18:38.729Z,92.91
2023-05-12T22:23:44.090Z,98.49
2023-05-12T22:28:48.308Z,100.00
2023-05-12T22:33:52.338Z,100.00
2023-05-12T22:38:57.527Z,100.00
2023-05-12T22:44:01.419Z,100.00
2023-05-12T22:49:05.267Z,100.00
2023-05-12T22:54:11.425Z,100.00
2023-05-12T22:59:15.450Z,95.38
2023-05-12T23:04:19.394Z,91.46
2023-05-12T23:09:24.708Z,94.77
2023-05-12T23:14:28.734Z,100.00
2023-05-12T23:19:32.965Z,98.48
2023-05-12T23:24:38.444Z,100.00
2023-05-12T23:29:42.349Z,100.00
2023-05-12T23:34:46.305Z,100.00
2023-05-12T23:39:51.828Z,100.00
2023-05-12T23:44:56.359Z,100.00
2023-05-12T23:50:00.345Z,100.00
2023-05-12T23:55:06.368Z,100.00
